Time;durP1;ratioP1;P1;durP2;ratioP2;P2;SDS_P1;SDS_P2;PMS_P1;PMS_P2;Temp;Humidity;BMP_temperature;BMP_pressure;BME280_temperature;BME280_humidity;BME280_pressure;Samples;Min_cycle;Max_cycle;Signal;HPM_P1;HPM_P2
2021/01/28 00:01:13;;;;;;;;;;;;;;;;;;5042654;28;19925;-89
2021/01/28 00:03:40;;;;;;;;;;;;;;;;;;5065012;28;20465;-90
2021/01/28 00:06:08;;;;;;;;;;;;;;;;;;5066145;28;19932;-89
2021/01/28 00:19:49;;;;;;;;;;;;;;;;;;5064876;28;19920;-90
2021/01/28 00:22:15;;;;;;;;;;;;;;;;;;5066862;28;20054;-89
2021/01/28 00:24:42;;;;;;;;;;;;;;;;;;5065278;28;19932;-90
2021/01/28 00:27:08;;;;;;;;;;;;;;;;;;5065820;28;20011;-89
2021/01/28 00:29:34;;;;;;;;;;;;;;;;;;5063284;28;19925;-90
2021/01/28 00:32:01;;;;;;;;;;;;;;;;;;5061979;28;20369;-89
2021/01/28 00:37:08;;;;;;;;;;;;;;;;;;5072028;28;19948;-90
2021/01/28 00:39:35;;;;;;;;;;;;;;;;;;5076645;28;20337;-92
2021/01/28 00:42:01;;;;;;;;;;;;;;;;;;5063019;28;20284;-91
2021/01/28 00:44:28;;;;;;;;;;;;;;;;;;5062749;28;19929;-90
2021/01/28 00:46:54;;;;;;;;;;;;;;;;;;5061362;28;19931;-89
2021/01/28 00:49:21;;;;;;;;;;;;;;;;;;5059049;28;19928;-88
2021/01/28 00:51:50;;;;;;;;;;;;;;;;;;5041029;28;20317;-90
2021/01/28 00:54:17;;;;;;;;;;;;;;;;;;5042535;28;19933;-90
2021/01/28 00:56:43;;;;;;;;;;;;;;;;;;5041909;28;19925;-90
2021/01/28 00:59:10;;;;;;;;;;;;;;;;;;5041711;28;19933;-91
2021/01/28 01:01:36;;;;;;;;;;;;;;;;;;5041913;28;19925;-91
2021/01/28 01:04:03;;;;;;;;;;;;;;;;;;5042122;28;20340;-91
2021/01/28 01:06:29;;;;;;;;;;;;;;;;;;5042719;28;19925;-90
2021/01/28 01:08:56;;;;;;;;;;;;;;;;;;5042027;28;19932;-90
2021/01/28 01:11:22;;;;;;;;;;;;;;;;;;5041368;28;19925;-90
2021/01/28 01:13:49;;;;;;;;;;;;;;;;;;5043953;28;19925;-90
2021/01/28 01:16:17;;;;;;;;;;;;;;;;;;5062719;28;19925;-90
2021/01/28 01:18:44;;;;;;;;;;;;;;;;;;5062543;28;19931;-90
2021/01/28 01:21:10;;;;;;;;;;;;;;;;;;5061786;28;19929;-90
2021/01/28 01:23:37;;;;;;;;;;;;;;;;;;5065510;28;19934;-90
2021/01/28 01:26:03;;;;;;;;;;;;;;;;;;5078433;28;19925;-90
2021/01/28 01:28:30;;;;;;;;;;;;;;;;;;5062528;28;19925;-90
2021/01/28 01:30:56;;;;;;;;;;;;;;;;;;5061918;28;19992;-91
2021/01/28 01:33:23;;;;;;;;;;;;;;;;;;5061869;28;19926;-91
2021/01/28 01:35:53;;;;;;;;;;;;;;;;;;5060747;28;19925;-91
2021/01/28 01:38:20;;;;;;;;;;;;;;;;;;5062645;28;19931;-91
2021/01/28 01:40:46;;;;;;;;;;;;;;;;;;5068579;28;19913;-92
2021/01/28 01:43:13;;;;;;;;;;;;;;;;;;5079885;28;19912;-92
2021/01/28 01:45:39;;;;;;;;;;;;;;;;;;5079587;28;19916;-92
2021/01/28 01:48:06;;;;;;;;;;;;;;;;;;5071900;28;19992;-92
2021/01/28 01:50:32;;;;;;;;;;;;;;;;;;5060443;28;19991;-90
2021/01/28 01:52:59;;;;;;;;;;;;;;;;;;5060624;28;19925;-90
2021/01/28 01:55:26;;;;;;;;;;;;;;;;;;5060854;28;19925;-91
2021/01/28 01:57:52;;;;;;;;;;;;;;;;;;5061899;28;19967;-91
2021/01/28 02:00:19;;;;;;;;;;;;;;;;;;5061406;28;20284;-90
2021/01/28 02:02:46;;;;;;;;;;;;;;;;;;5066754;28;19924;-90
2021/01/28 02:05:12;;;;;;;;;;;;;;;;;;5071767;28;19931;-90
2021/01/28 02:07:39;;;;;;;;;;;;;;;;;;5067948;28;19932;-92
2021/01/28 02:10:05;;;;;;;;;;;;;;;;;;5060330;28;19925;-90
2021/01/28 02:12:34;;;;;;;;;;;;;;;;;;5060627;28;20230;-91
2021/01/28 02:15:00;;;;;;;;;;;;;;;;;;5060893;28;19935;-93
2021/01/28 02:17:27;;;;;;;;;;;;;;;;;;5056658;28;20349;-92
2021/01/28 02:19:53;;;;;;;;;;;;;;;;;;5060792;28;19925;-91
2021/01/28 02:22:20;;;;;;;;;;;;;;;;;;5060303;28;19947;-92
2021/01/28 02:24:46;;;;;;;;;;;;;;;;;;5073023;28;19925;-91
2021/01/28 02:27:13;;;;;;;;;;;;;;;;;;5069246;28;20416;-91
2021/01/28 02:29:39;;;;;;;;;;;;;;;;;;5060104;28;19948;-91
2021/01/28 02:32:05;;;;;;;;;;;;;;;;;;5060382;28;20301;-92
2021/01/28 02:34:32;;;;;;;;;;;;;;;;;;5062460;28;19924;-92
2021/01/28 02:36:58;;;;;;;;;;;;;;;;;;5059821;28;20007;-92
2021/01/28 02:39:25;;;;;;;;;;;;;;;;;;5058984;28;19925;-92
2021/01/28 02:41:51;;;;;;;;;;;;;;;;;;5060591;28;19924;-93
2021/01/28 02:44:18;;;;;;;;;;;;;;;;;;5060494;28;20015;-92
2021/01/28 02:46:44;;;;;;;;;;;;;;;;;;5054309;28;19925;-90
2021/01/28 02:49:11;;;;;;;;;;;;;;;;;;5072167;28;19924;-91
2021/01/28 02:51:37;;;;;;;;;;;;;;;;;;5062074;28;20293;-91
2021/01/28 02:54:04;;;;;;;;;;;;;;;;;;5059508;28;19964;-91
2021/01/28 02:56:30;;;;;;;;;;;;;;;;;;5060059;28;20373;-90
2021/01/28 02:58:57;;;;;;;;;;;;;;;;;;5058888;28;19960;-90
2021/01/28 03:01:23;;;;;;;;;;;;;;;;;;5058816;28;19925;-89
2021/01/28 03:03:50;;;;;;;;;;;;;;;;;;5059810;28;19932;-91
2021/01/28 03:06:16;;;;;;;;;;;;;;;;;;5059663;28;20397;-89
2021/01/28 03:08:42;;;;;;;;;;;;;;;;;;5058666;28;19929;-89
2021/01/28 03:11:09;;;;;;;;;;;;;;;;;;5054269;28;19931;-89
2021/01/28 03:13:35;;;;;;;;;;;;;;;;;;5059496;28;19925;-89
2021/01/28 03:16:02;;;;;;;;;;;;;;;;;;5060151;28;19925;-90
2021/01/28 03:18:30;;;;;;;;;;;;;;;;;;5060811;28;19929;-89
2021/01/28 03:20:57;;;;;;;;;;;;;;;;;;5070626;28;19944;-88
2021/01/28 03:23:23;;;;;;;;;;;;;;;;;;5075924;28;19988;-89
2021/01/28 03:25:50;;;;;;;;;;;;;;;;;;5075431;28;19928;-89
2021/01/28 03:28:16;;;;;;;;;;;;;;;;;;5059832;28;19925;-89
2021/01/28 03:30:43;;;;;;;;;;;;;;;;;;5059844;28;19932;-89
2021/01/28 03:33:09;;;;;;;;;;;;;;;;;;5059112;28;19925;-88
2021/01/28 03:35:35;;;;;;;;;;;;;;;;;;5059361;28;19932;-89
2021/01/28 03:38:02;;;;;;;;;;;;;;;;;;5060537;28;20015;-88
2021/01/28 03:40:28;;;;;;;;;;;;;;;;;;5061485;28;19928;-89
2021/01/28 03:42:55;;;;;;;;;;;;;;;;;;5061793;28;19925;-89
2021/01/28 03:45:21;;;;;;;;;;;;;;;;;;5058442;28;19925;-90
2021/01/28 03:47:48;;;;;;;;;;;;;;;;;;5058006;28;20024;-89
2021/01/28 03:50:14;;;;;;;;;;;;;;;;;;5057361;28;19932;-89
2021/01/28 03:52:40;;;;;;;;;;;;;;;;;;5061952;28;19925;-90
2021/01/28 03:55:07;;;;;;;;;;;;;;;;;;5053867;28;20021;-88
2021/01/28 03:57:34;;;;;;;;;;;;;;;;;;5062855;28;19925;-89
2021/01/28 04:00:00;;;;;;;;;;;;;;;;;;5062453;28;19998;-88
2021/01/28 04:02:27;;;;;;;;;;;;;;;;;;5061436;28;19925;-89
2021/01/28 04:04:53;;;;;;;;;;;;;;;;;;5071261;28;19909;-90
2021/01/28 04:07:19;;;;;;;;;;;;;;;;;;5074030;28;20000;-89
2021/01/28 04:09:46;;;;;;;;;;;;;;;;;;5060908;28;19925;-89
2021/01/28 04:12:12;;;;;;;;;;;;;;;;;;5061387;28;19924;-89
2021/01/28 04:14:39;;;;;;;;;;;;;;;;;;5063511;28;19928;-89
2021/01/28 04:17:05;;;;;;;;;;;;;;;;;;5066716;28;20313;-88
2021/01/28 04:19:32;;;;;;;;;;;;;;;;;;5063937;28;20011;-88
2021/01/28 04:21:59;;;;;;;;;;;;;;;;;;5061532;28;20000;-88
2021/01/28 04:24:26;;;;;;;;;;;;;;;;;;5063939;28;20290;-90
2021/01/28 04:26:53;;;;;;;;;;;;;;;;;;5065442;28;19947;-90
2021/01/28 04:29:19;;;;;;;;;;;;;;;;;;5068806;28;19931;-86
2021/01/28 04:31:45;;;;;;;;;;;;;;;;;;5071302;28;19931;-87
2021/01/28 04:34:12;;;;;;;;;;;;;;;;;;5063178;28;19925;-87
2021/01/28 04:36:38;;;;;;;;;;;;;;;;;;5062067;28;19970;-86
2021/01/28 04:39:05;;;;;;;;;;;;;;;;;;5062306;28;20458;-85
2021/01/28 04:41:31;;;;;;;;;;;;;;;;;;5061352;28;20365;-87
2021/01/28 04:43:57;;;;;;;;;;;;;;;;;;5062440;28;20554;-85
2021/01/28 04:46:24;;;;;;;;;;;;;;;;;;5062572;28;19924;-87
2021/01/28 04:48:50;;;;;;;;;;;;;;;;;;5062629;28;19925;-88
2021/01/28 04:51:17;;;;;;;;;;;;;;;;;;5062850;28;19935;-87
2021/01/28 04:53:43;;;;;;;;;;;;;;;;;;5062687;28;19925;-88
2021/01/28 04:56:10;;;;;;;;;;;;;;;;;;5060834;28;19925;-87
2021/01/28 04:58:36;;;;;;;;;;;;;;;;;;5069840;28;19932;-86
2021/01/28 05:01:02;;;;;;;;;;;;;;;;;;5078337;28;19925;-87
2021/01/28 05:03:29;;;;;;;;;;;;;;;;;;5068029;28;19925;-88
2021/01/28 05:05:55;;;;;;;;;;;;;;;;;;5056919;28;19956;-87
2021/01/28 05:08:22;;;;;;;;;;;;;;;;;;5052648;28;19979;-87
2021/01/28 05:10:48;;;;;;;;;;;;;;;;;;5063102;28;19933;-87
2021/01/28 05:13:14;;;;;;;;;;;;;;;;;;5057050;28;19925;-87
2021/01/28 05:15:41;;;;;;;;;;;;;;;;;;5061287;28;19925;-88
2021/01/28 05:18:07;;;;;;;;;;;;;;;;;;5062394;28;19929;-86
2021/01/28 05:20:34;;;;;;;;;;;;;;;;;;5068587;28;19934;-85
2021/01/28 05:23:00;;;;;;;;;;;;;;;;;;5070331;28;19925;-86
2021/01/28 05:25:27;;;;;;;;;;;;;;;;;;5072337;28;19921;-86
2021/01/28 05:27:53;;;;;;;;;;;;;;;;;;5069188;28;19931;-86
2021/01/28 05:30:20;;;;;;;;;;;;;;;;;;5061813;28;20280;-85
2021/01/28 05:32:46;;;;;;;;;;;;;;;;;;5062035;28;19925;-87
2021/01/28 05:35:13;;;;;;;;;;;;;;;;;;5056501;28;19932;-84
2021/01/28 05:37:39;;;;;;;;;;;;;;;;;;5062560;28;19928;-85
2021/01/28 05:40:05;;;;;;;;;;;;;;;;;;5067820;28;19924;-83
2021/01/28 05:42:32;;;;;;;;;;;;;;;;;;5070136;28;19932;-84
2021/01/28 05:44:58;;;;;;;;;;;;;;;;;;5063922;28;19929;-86
2021/01/28 05:47:25;;;;;;;;;;;;;;;;;;5061101;28;19925;-84
2021/01/28 05:49:51;;;;;;;;;;;;;;;;;;5065794;28;19925;-84
2021/01/28 05:52:19;;;;;;;;;;;;;;;;;;5067957;28;20011;-84
2021/01/28 05:54:46;;;;;;;;;;;;;;;;;;5063642;28;19987;-85
2021/01/28 05:57:12;;;;;;;;;;;;;;;;;;5071567;28;19925;-86
2021/01/28 05:59:38;;;;;;;;;;;;;;;;;;5076854;28;19935;-84
2021/01/28 06:02:05;;;;;;;;;;;;;;;;;;5076470;28;19920;-84
2021/01/28 06:04:31;;;;;;;;;;;;;;;;;;5077792;28;19931;-85
2021/01/28 06:06:58;;;;;;;;;;;;;;;;;;5061422;28;19928;-86
2021/01/28 06:09:24;;;;;;;;;;;;;;;;;;5061480;28;19925;-86
2021/01/28 06:11:50;;;;;;;;;;;;;;;;;;5059128;28;19925;-84
2021/01/28 06:14:17;;;;;;;;;;;;;;;;;;5061926;28;19929;-87
2021/01/28 06:16:43;;;;;;;;;;;;;;;;;;5062788;28;19948;-87
2021/01/28 06:19:11;;;;;;;;;;;;;;;;;;5064710;28;19925;-86
2021/01/28 06:21:37;;;;;;;;;;;;;;;;;;5042835;28;19932;-86
2021/01/28 06:24:04;;;;;;;;;;;;;;;;;;5059216;28;19925;-86
2021/01/28 06:26:30;;;;;;;;;;;;;;;;;;5058410;28;19925;-86
2021/01/28 06:28:57;;;;;;;;;;;;;;;;;;5059956;28;20014;-84
2021/01/28 06:31:23;;;;;;;;;;;;;;;;;;5060237;28;19925;-85
2021/01/28 06:33:49;;;;;;;;;;;;;;;;;;5053963;28;19963;-84
2021/01/28 06:36:16;;;;;;;;;;;;;;;;;;5064434;28;20378;-84
2021/01/28 06:38:42;;;;;;;;;;;;;;;;;;5077613;28;19936;-86
2021/01/28 06:41:09;;;;;;;;;;;;;;;;;;5062977;28;19948;-85
2021/01/28 06:43:35;;;;;;;;;;;;;;;;;;5059759;28;19925;-84
2021/01/28 06:46:01;;;;;;;;;;;;;;;;;;5058872;28;19925;-84
2021/01/28 06:48:28;;;;;;;;;;;;;;;;;;5059688;28;19943;-84
2021/01/28 06:50:55;;;;;;;;;;;;;;;;;;5058179;28;19970;-85
2021/01/28 06:53:21;;;;;;;;;;;;;;;;;;5060073;28;20035;-85
2021/01/28 06:55:48;;;;;;;;;;;;;;;;;;5059212;28;19958;-85
2021/01/28 06:58:14;;;;;;;;;;;;;;;;;;5059441;28;20282;-84
2021/01/28 07:00:40;;;;;;;;;;;;;;;;;;5058979;28;19925;-86
2021/01/28 07:03:07;;;;;;;;;;;;;;;;;;5058588;28;19929;-86
2021/01/28 07:05:33;;;;;;;;;;;;;;;;;;5050590;28;20301;-85
2021/01/28 07:08:00;;;;;;;;;;;;;;;;;;5058983;28;19924;-86
2021/01/28 07:10:26;;;;;;;;;;;;;;;;;;5055249;28;19932;-86
2021/01/28 07:12:52;;;;;;;;;;;;;;;;;;5059080;28;19925;-86
2021/01/28 07:15:19;;;;;;;;;;;;;;;;;;5059293;28;19932;-85
2021/01/28 07:17:45;;;;;;;;;;;;;;;;;;5053199;28;19925;-85
2021/01/28 07:20:12;;;;;;;;;;;;;;;;;;5059111;28;20327;-83
2021/01/28 07:22:38;;;;;;;;;;;;;;;;;;5059639;28;19929;-83
2021/01/28 07:25:04;;;;;;;;;;;;;;;;;;5057957;28;19948;-85
2021/01/28 07:27:31;;;;;;;;;;;;;;;;;;5059327;28;19924;-85
2021/01/28 07:29:57;;;;;;;;;;;;;;;;;;5058917;28;19924;-87
2021/01/28 07:32:24;;;;;;;;;;;;;;;;;;5065218;28;19925;-86
2021/01/28 07:34:50;;;;;;;;;;;;;;;;;;5061202;28;19931;-86
2021/01/28 07:37:17;;;;;;;;;;;;;;;;;;5047539;28;19929;-85
2021/01/28 07:39:43;;;;;;;;;;;;;;;;;;5058688;28;20374;-84
2021/01/28 07:42:09;;;;;;;;;;;;;;;;;;5057344;28;19925;-86
2021/01/28 07:44:36;;;;;;;;;;;;;;;;;;5049544;28;19925;-88
2021/01/28 07:47:03;;;;;;;;;;;;;;;;;;5059596;28;19954;-87
2021/01/28 07:49:30;;;;;;;;;;;;;;;;;;5062787;28;19925;-87
2021/01/28 07:51:56;;;;;;;;;;;;;;;;;;5061192;28;19928;-87
2021/01/28 07:54:23;;;;;;;;;;;;;;;;;;5072926;28;19955;-88
2021/01/28 07:56:50;;;;;;;;;;;;;;;;;;5075911;28;19925;-87
2021/01/28 07:59:16;;;;;;;;;;;;;;;;;;5063377;28;20012;-86
2021/01/28 08:01:43;;;;;;;;;;;;;;;;;;5061262;28;20266;-87
2021/01/28 08:04:09;;;;;;;;;;;;;;;;;;5062038;28;19925;-86
2021/01/28 08:06:36;;;;;;;;;;;;;;;;;;5047737;28;19994;-86
2021/01/28 08:09:03;;;;;;;;;;;;;;;;;;5059404;28;19925;-86
2021/01/28 08:11:29;;;;;;;;;;;;;;;;;;5054006;28;19925;-85
2021/01/28 08:13:56;;;;;;;;;;;;;;;;;;5060368;28;19925;-86
2021/01/28 08:16:23;;;;;;;;;;;;;;;;;;5068299;28;19932;-86
2021/01/28 08:18:50;;;;;;;;;;;;;;;;;;5062717;28;19928;-86
2021/01/28 08:21:16;;;;;;;;;;;;;;;;;;5060140;28;19928;-87
2021/01/28 08:23:43;;;;;;;;;;;;;;;;;;5061269;28;19925;-87
2021/01/28 08:26:09;;;;;;;;;;;;;;;;;;5057516;28;19982;-86
2021/01/28 08:28:35;;;;;;;;;;;;;;;;;;5059589;28;19932;-87
2021/01/28 08:31:02;;;;;;;;;;;;;;;;;;5071560;28;19933;-86
2021/01/28 08:33:28;;;;;;;;;;;;;;;;;;5066206;28;19932;-86
2021/01/28 08:35:55;;;;;;;;;;;;;;;;;;5061232;28;19951;-87
2021/01/28 08:38:21;;;;;;;;;;;;;;;;;;5061140;28;19924;-86
2021/01/28 08:40:48;;;;;;;;;;;;;;;;;;5060781;28;19936;-86
2021/01/28 08:43:14;;;;;;;;;;;;;;;;;;5063012;28;19925;-87
2021/01/28 08:45:41;;;;;;;;;;;;;;;;;;5061287;28;19925;-87
2021/01/28 08:48:08;;;;;;;;;;;;;;;;;;5065677;28;20008;-86
2021/01/28 08:50:34;;;;;;;;;;;;;;;;;;5066362;28;19925;-85
2021/01/28 08:53:00;;;;;;;;;;;;;;;;;;5058777;28;19924;-84
2021/01/28 08:55:27;;;;;;;;;;;;;;;;;;5055072;28;19964;-85
2021/01/28 08:57:53;;;;;;;;;;;;;;;;;;5057597;28;20343;-85
2021/01/28 09:00:20;;;;;;;;;;;;;;;;;;5074814;28;19925;-86
2021/01/28 09:02:47;;;;;;;;;;;;;;;;;;5061004;28;19935;-87
2021/01/28 09:05:14;;;;;;;;;;;;;;;;;;5057764;28;19925;-87
2021/01/28 09:07:40;;;;;;;;;;;;;;;;;;5044955;28;19925;-88
2021/01/28 09:10:06;;;;;;;;;;;;;;;;;;5054411;28;19928;-88
2021/01/28 09:12:33;;;;;;;;;;;;;;;;;;5049736;28;19929;-88
2021/01/28 09:15:00;;;;;;;;;;;;;;;;;;5057467;28;20015;-87
2021/01/28 09:17:26;;;;;;;;;;;;;;;;;;5059065;28;19975;-87
2021/01/28 09:19:53;;;;;;;;;;;;;;;;;;5057743;28;20285;-86
2021/01/28 09:22:19;;;;;;;;;;;;;;;;;;5057503;28;20445;-86
2021/01/28 09:24:46;;;;;;;;;;;;;;;;;;5058776;28;19924;-86
2021/01/28 09:27:12;;;;;;;;;;;;;;;;;;5075020;28;19925;-86
2021/01/28 09:29:38;;;;;;;;;;;;;;;;;;5058508;28;19929;-87
2021/01/28 09:32:05;;;;;;;;;;;;;;;;;;5054197;28;19931;-86
2021/01/28 09:34:32;;;;;;;;;;;;;;;;;;5058989;28;20373;-87
2021/01/28 09:36:58;;;;;;;;;;;;;;;;;;5058917;28;19931;-87
2021/01/28 09:39:24;;;;;;;;;;;;;;;;;;5059182;28;19924;-87
2021/01/28 09:41:51;;;;;;;;;;;;;;;;;;5063828;28;19931;-86
2021/01/28 09:44:17;;;;;;;;;;;;;;;;;;5082150;28;19908;-86
2021/01/28 09:46:44;;;;;;;;;;;;;;;;;;5075342;28;19947;-88
2021/01/28 09:49:10;;;;;;;;;;;;;;;;;;5062334;28;19925;-87
2021/01/28 09:51:37;;;;;;;;;;;;;;;;;;5064141;28;19929;-87
2021/01/28 09:54:03;;;;;;;;;;;;;;;;;;5077086;28;19909;-87
2021/01/28 09:56:29;;;;;;;;;;;;;;;;;;5067847;28;19932;-87
2021/01/28 09:58:56;;;;;;;;;;;;;;;;;;5049810;28;20459;-88
2021/01/28 10:01:22;;;;;;;;;;;;;;;;;;5036785;28;19925;-88
2021/01/28 10:03:49;;;;;;;;;;;;;;;;;;5052040;28;19925;-89
2021/01/28 10:06:15;;;;;;;;;;;;;;;;;;5055971;28;19925;-90
2021/01/28 10:08:41;;;;;;;;;;;;;;;;;;5056393;28;19932;-88
2021/01/28 10:11:08;;;;;;;;;;;;;;;;;;5043515;28;19925;-88
2021/01/28 10:13:36;;;;;;;;;;;;;;;;;;5051898;28;19971;-89
2021/01/28 10:16:03;;;;;;;;;;;;;;;;;;5057395;28;19932;-90
2021/01/28 10:18:29;;;;;;;;;;;;;;;;;;5056565;28;20333;-90
2021/01/28 10:21:02;;;;;;;;;;;;;;;;;;5061793;28;19925;-92
2021/01/28 10:23:28;;;;;;;;;;;;;;;;;;5058654;28;20346;-89
2021/01/28 10:26:03;;;;;;;;;;;;;;;;;;5076092;28;19932;-89
2021/01/28 10:28:30;;;;;;;;;;;;;;;;;;5072345;28;20326;-89
2021/01/28 11:53:12;;;;;;;;;;;;;;;;;;5057989;28;20020;-89
2021/01/28 12:01:18;;;;;;;;;;;;;;;;;;5000392;28;20120;-91
2021/01/28 12:26:10;;;;;;;;;;;;;;;;;;4993642;28;19922;-89
2021/01/28 12:32:00;;;;;;;;;;;;;;;;;;5004307;28;19925;-87
2021/01/28 12:45:48;;;;;;;;;;;;;;;;;;5037656;28;19913;-87
2021/01/28 12:48:14;;;;;;;;;;;;;;;;;;5037550;28;20281;-86
2021/01/28 12:50:45;;;;;;;;;;;;;;;;;;5038710;28;19996;-88
2021/01/28 12:53:23;;;;;;;;;;;;;;;;;;5017419;28;19995;-91
2021/01/28 12:55:51;;;;;;;;;;;;;;;;;;5030953;28;19925;-89
2021/01/28 13:01:06;;;;;;;;;;;;;;;;;;5004993;28;20395;-89
2021/01/28 13:03:43;;;;;;;;;;;;;;;;;;5031128;28;19999;-89
2021/01/28 13:06:16;;;;;;;;;;;;;;;;;;5024337;28;20021;-89
2021/01/28 13:08:45;;;;;;;;;;;;;;;;;;5022852;28;19913;-89
2021/01/28 13:13:55;;;;;;;;;;;;;;;;;;4977824;28;20442;-87
2021/01/28 13:19:34;;;;;;;;;;;;;;;;;;4958381;29;20022;-88
2021/01/28 13:22:08;;;;;;;;;;;;;;;;;;4945884;29;19954;-90
2021/01/28 21:54:57;;;;;;;;;;;;;;;;;;5029255;28;19961;-87
2021/01/28 22:00:08;;;;;;;;;;;;;;;;;;5023858;28;19921;-89
2021/01/28 22:02:35;;;;;;;;;;;;;;;;;;5003625;28;20418;-88
2021/01/28 22:05:01;;;;;;;;;;;;;;;;;;5006289;28;19926;-90
2021/01/28 22:07:27;;;;;;;;;;;;;;;;;;5001422;28;19978;-88
2021/01/28 22:09:54;;;;;;;;;;;;;;;;;;5010088;28;19926;-89
2021/01/28 22:12:23;;;;;;;;;;;;;;;;;;5003505;28;20398;-88
2021/01/28 22:14:49;;;;;;;;;;;;;;;;;;5000632;28;20426;-88
2021/01/28 22:17:15;;;;;;;;;;;;;;;;;;5015932;28;19980;-89
2021/01/28 22:19:42;;;;;;;;;;;;;;;;;;5014382;28;19945;-89
2021/01/28 22:22:08;;;;;;;;;;;;;;;;;;5009129;28;19972;-88
2021/01/28 22:24:35;;;;;;;;;;;;;;;;;;4997677;28;19972;-88
2021/01/28 22:27:03;;;;;;;;;;;;;;;;;;4999187;28;19971;-88
2021/01/28 22:29:29;;;;;;;;;;;;;;;;;;4999164;28;19932;-88
2021/01/28 22:31:56;;;;;;;;;;;;;;;;;;5000765;28;19996;-88
2021/01/28 22:34:22;;;;;;;;;;;;;;;;;;5011207;28;20026;-87
2021/01/28 22:36:49;;;;;;;;;;;;;;;;;;5000134;28;19933;-88
2021/01/28 22:39:15;;;;;;;;;;;;;;;;;;4999477;28;19964;-89
2021/01/28 22:41:42;;;;;;;;;;;;;;;;;;4999130;28;19944;-88
2021/01/28 22:44:08;;;;;;;;;;;;;;;;;;5016449;28;19931;-89
2021/01/28 22:46:35;;;;;;;;;;;;;;;;;;5012788;28;19926;-89
2021/01/28 22:49:01;;;;;;;;;;;;;;;;;;5002201;28;19930;-87
2021/01/28 22:51:28;;;;;;;;;;;;;;;;;;4999076;28;20421;-89
2021/01/28 22:53:54;;;;;;;;;;;;;;;;;;4998812;28;19933;-89
2021/01/28 22:56:21;;;;;;;;;;;;;;;;;;5017615;28;19926;-89
2021/01/28 22:58:47;;;;;;;;;;;;;;;;;;5035266;28;19928;-89
2021/01/28 23:01:14;;;;;;;;;;;;;;;;;;5013363;28;20018;-87
2021/01/28 23:03:40;;;;;;;;;;;;;;;;;;5005704;28;19967;-88
2021/01/28 23:06:06;;;;;;;;;;;;;;;;;;5000576;28;19933;-88
2021/01/28 23:08:33;;;;;;;;;;;;;;;;;;4999189;28;19926;-89
2021/01/28 23:10:59;;;;;;;;;;;;;;;;;;5000059;28;19953;-88
2021/01/28 23:13:26;;;;;;;;;;;;;;;;;;5002898;28;19925;-88
2021/01/28 23:15:52;;;;;;;;;;;;;;;;;;5021121;28;20295;-89
2021/01/28 23:18:19;;;;;;;;;;;;;;;;;;4998328;28;19932;-89
2021/01/28 23:20:45;;;;;;;;;;;;;;;;;;5011772;28;19926;-89
2021/01/28 23:23:12;;;;;;;;;;;;;;;;;;5002417;28;19982;-90
2021/01/28 23:25:40;;;;;;;;;;;;;;;;;;4998279;28;20020;-89
2021/01/28 23:28:07;;;;;;;;;;;;;;;;;;5008505;28;19956;-89
2021/01/28 23:30:33;;;;;;;;;;;;;;;;;;5015381;28;19991;-89
2021/01/28 23:32:59;;;;;;;;;;;;;;;;;;4998659;28;20027;-89
2021/01/28 23:35:26;;;;;;;;;;;;;;;;;;4998334;28;20294;-90
2021/01/28 23:37:52;;;;;;;;;;;;;;;;;;4998914;28;19961;-88
2021/01/28 23:40:19;;;;;;;;;;;;;;;;;;5004508;28;19926;-89
2021/01/28 23:42:45;;;;;;;;;;;;;;;;;;5000138;28;20521;-89
2021/01/28 23:45:12;;;;;;;;;;;;;;;;;;5001047;28;19996;-89
2021/01/28 23:47:38;;;;;;;;;;;;;;;;;;5010885;28;20031;-89
2021/01/28 23:50:05;;;;;;;;;;;;;;;;;;4997864;28;19999;-89
2021/01/28 23:52:31;;;;;;;;;;;;;;;;;;4999026;28;19980;-89
2021/01/28 23:54:57;;;;;;;;;;;;;;;;;;5000692;28;20039;-89
2021/01/28 23:57:24;;;;;;;;;;;;;;;;;;5001062;28;19963;-89
2021/01/28 23:59:50;;;;;;;;;;;;;;;;;;5001334;28;19926;-89
